Latest Weather Observations for Gold Coast Seaway

IDQ60801

Issued at 10:22 am EST Tuesday 7 December 2021 (issued every 10 minutes, with the page automatically refreshed every 10 minutes)

About weather observations | Map of weather stations | Latest weather observations for QLD | Other Formats
Station Details ID: 040764 Name: GOLD COAST SEAWAY Lat: -27.94 Lon: 153.43 Height: 2.98 m
Data from the previous 72 hours. | See also: Recent months at Gold Coast Seaway
Date/Time
EST
Temp
°C
App
Temp
°C
Dew
Point
°C
Rel
Hum
%
Delta-T
°C
Wind Press
QNH
hPa
Press
MSL
hPa
Rain since
9am
mm
Dir  Spd
km/h
Gust
km/h
Spd
kts
Gust
kts
07/10:00am 25.8 27.3 19.7 69 3.9 SSE 11 17 6 9 1014.4 1014.4 0.0
07/09:30am 25.5 26.5 19.4 69 3.9 ESE 13 17 7 9 1014.3 1014.3 0.0
07/09:00am 24.9 25.6 18.8 69 3.9 E 13 17 7 9 1014.1 1014.1 0.0
07/08:30am 24.6 25.1 19.2 72 3.5 E 15 20 8 11 1013.7 1013.7 0.0
07/08:00am 23.5 24.0 20.0 81 2.3 SE 17 20 9 11 1013.9 1013.9 0.0
07/07:30am 23.5 24.2 19.6 79 2.5 SSE 15 22 8 12 1013.9 1013.9 0.0
07/07:00am 23.4 24.7 19.3 78 2.6 SSE 11 15 6 8 1014.2 1014.2 0.0
07/06:30am 23.4 24.2 19.8 80 2.3 SSE 15 19 8 10 1014.2 1014.2 0.0
07/06:00am 22.3 24.2 19.7 85 1.7 S 9 13 5 7 1014.2 1014.2 0.0
07/05:30am 21.6 23.1 19.0 85 1.6 SSW 9 11 5 6 1014.1 1014.1 0.0
07/05:00am 21.4 22.9 19.0 86 1.5 SSW 9 13 5 7 1014.0 1014.0 0.0
07/04:30am 21.0 22.4 18.6 86 1.5 SSW 9 13 5 7 1013.8 1013.8 0.0
07/04:00am 20.7 21.8 18.1 85 1.6 SSW 9 11 5 6 1013.6 1013.6 0.0
07/03:30am 20.8 21.6 18.2 85 1.6 SSW 11 13 6 7 1013.5 1013.5 0.0
07/03:00am 21.1 22.3 18.3 84 1.7 SSW 9 13 5 7 1013.4 1013.4 0.0
07/02:30am 20.9 21.6 17.9 83 1.9 S 11 17 6 9 1013.4 1013.4 0.0
07/02:00am 21.0 22.0 17.8 82 2.0 SSW 9 13 5 7 1013.6 1013.6 0.0
07/01:30am 21.2 22.6 17.8 81 2.1 SSW 7 11 4 6 1013.9 1013.9 0.0
07/01:00am 21.2 22.2 17.8 81 2.1 S 9 11 5 6 1014.0 1014.0 0.0
07/12:30am 21.3 22.4 18.1 82 2.0 SW 9 11 5 6 1014.4 1014.4 0.0
07/12:00am 21.4 22.8 17.8 80 2.2 SSW 7 13 4 7 1014.6 1014.6 0.0
 
Date/Time
EST
Temp
°C
App
Temp
°C
Dew
Point
°C
Rel
Hum
%
Delta-T
°C
Wind Press
QNH
hPa
Press
MSL
hPa
Rain since
9am
mm
Dir  Spd
km/h
Gust
km/h
Spd
kts
Gust
kts
06/11:30pm 21.3 21.9 17.7 80 2.2 S 11 15 6 8 1014.7 1014.7 0.0
06/11:00pm 21.5 22.5 17.7 79 2.3 S 9 11 5 6 1014.9 1014.9 0.0
06/10:30pm 21.8 22.5 18.0 79 2.4 S 11 13 6 7 1015.1 1015.1 0.0
06/10:00pm 22.0 22.7 18.0 78 2.5 S 11 15 6 8 1015.4 1015.4 0.0
06/09:30pm 22.2 22.7 18.4 79 2.4 S 13 19 7 10 1015.4 1015.4 0.0
06/09:00pm 22.2 23.1 18.4 79 2.4 S 11 15 6 8 1015.4 1015.4 0.0
06/08:30pm 22.6 23.2 18.6 78 2.5 S 13 19 7 10 1015.0 1015.0 0.0
06/08:00pm 23.1 23.4 18.8 77 2.7 S 15 20 8 11 1014.8 1014.8 0.0
06/07:30pm 23.5 23.1 18.8 75 3.0 SE 19 26 10 14 1014.5 1014.5 0.0
06/07:00pm 23.5 22.1 17.9 71 3.5 SE 22 28 12 15 1014.3 1014.3 0.0
06/06:30pm 23.7 22.7 17.9 70 3.6 SE 20 24 11 13 1014.4 1014.4 0.0
06/06:00pm 24.0 22.7 18.2 70 3.6 SE 22 30 12 16 1014.2 1014.2 0.0
06/05:30pm 24.0 22.4 18.4 71 3.5 SE 24 30 13 16 1014.0 1014.0 0.0
06/05:00pm 24.3 23.2 19.4 74 3.1 SE 24 28 13 15 1013.6 1013.6 0.0
06/04:30pm 24.0 22.6 18.9 73 3.2 SE 24 30 13 16 1013.1 1013.1 0.0
06/04:00pm 24.1 22.7 18.7 72 3.4 SE 24 30 13 16 1013.2 1013.2 0.0
06/03:30pm 25.2 23.3 19.3 70 3.8 SE 28 32 15 17 1013.3 1013.3 0.0
06/03:00pm 25.4 24.1 19.8 71 3.6 SE 26 30 14 16 1013.7 1013.7 0.0
06/02:30pm 25.1 23.0 19.7 72 3.5 SE 30 37 16 20 1014.0 1014.0 0.0
06/02:00pm 25.3 22.8 19.7 71 3.6 SE 32 37 17 20 1014.4 1014.4 0.0
06/01:30pm 25.6 23.9 19.7 70 3.8 SE 28 33 15 18 1014.4 1014.4 0.0
06/01:00pm 26.0 24.9 20.3 71 3.7 SE 26 33 14 18 1014.5 1014.5 0.0
06/12:30pm 25.7 24.0 18.9 66 4.3 SE 26 30 14 16 1014.6 1014.6 0.0
06/12:00pm 26.2 25.3 19.8 68 4.1 SE 24 30 13 16 1015.0 1015.0 0.0
06/11:30am 25.9 24.3 19.1 66 4.4 SE 26 30 14 16 1015.3 1015.3 0.0
06/11:00am 26.4 25.2 19.3 65 4.6 SE 24 30 13 16 1015.5 1015.5 0.0
06/10:30am 26.2 25.5 19.6 67 4.3 SE 22 28 12 15 1015.8 1015.8 0.0
06/10:00am 25.9 25.6 19.1 66 4.4 SE 19 24 10 13 1016.0 1016.0 0.0
06/09:30am 25.5 24.7 17.9 63 4.8 SSE 19 26 10 14 1016.2 1016.2 0.0
06/09:00am 26.1 26.1 19.0 65 4.5 SSE 17 28 9 15 1016.0 1016.0 1.4
06/08:30am 25.2 24.9 19.1 69 3.9 SSE 19 24 10 13 1015.8 1015.8 1.4
06/08:00am 24.0 22.9 17.7 68 3.9 SSE 20 28 11 15 1015.9 1015.9 1.4
06/07:30am 24.0 23.2 18.0 69 3.8 SSE 19 26 10 14 1015.7 1015.7 1.4
06/07:00am 22.6 21.7 17.7 74 3.0 SSE 19 28 10 15 1015.6 1015.6 1.4
06/06:30am 22.3 22.3 17.2 73 3.1 S 13 22 7 12 1015.3 1015.3 1.4
06/06:00am 21.1 21.4 16.9 77 2.6 SSW 11 17 6 9 1014.8 1014.8 1.4
06/05:30am 20.5 20.1 16.3 77 2.5 SSW 13 19 7 10 1014.6 1014.6 1.4
06/05:00am 19.8 19.7 16.1 79 2.2 SSW 11 19 6 10 1014.4 1014.4 1.4
06/04:30am 19.7 18.8 15.8 78 2.3 SSW 15 22 8 12 1014.1 1014.1 1.4
06/04:00am 19.7 18.8 15.8 78 2.3 SSW 15 20 8 11 1014.0 1014.0 1.4
06/03:30am 19.7 18.4 15.8 78 2.3 S 17 24 9 13 1014.2 1014.2 1.4
06/03:00am 19.7 18.4 15.8 78 2.3 SSW 17 28 9 15 1014.5 1014.5 1.4
06/02:30am 19.9 17.9 15.5 76 2.6 S 20 32 11 17 1014.6 1014.6 1.4
06/02:00am 20.0 17.3 15.6 76 2.6 S 24 37 13 20 1014.6 1014.6 1.4
06/01:30am 20.0 19.4 15.6 76 2.6 S 13 20 7 11 1014.9 1014.9 1.4
06/01:00am 20.2 18.8 15.6 75 2.7 S 17 26 9 14 1015.3 1015.3 1.4
06/12:30am 20.1 18.3 15.5 75 2.7 S 19 30 10 16 1015.5 1015.5 1.4
06/12:00am 20.2 18.8 15.6 75 2.7 S 17 28 9 15 1016.1 1016.1 1.4
 
Date/Time
EST
Temp
°C
App
Temp
°C
Dew
Point
°C
Rel
Hum
%
Delta-T
°C
Wind Press
QNH
hPa
Press
MSL
hPa
Rain since
9am
mm
Dir  Spd
km/h
Gust
km/h
Spd
kts
Gust
kts
05/11:30pm 20.3 19.0 15.7 75 2.7 S 17 24 9 13 1015.8 1015.8 1.4
05/11:00pm 20.2 19.2 15.6 75 2.7 S 15 20 8 11 1016.2 1016.2 1.4
05/10:30pm 20.4 19.4 15.6 74 2.9 S 15 24 8 13 1016.3 1016.3 1.4
05/10:00pm 20.4 19.9 15.8 75 2.7 S 13 20 7 11 1016.2 1016.2 1.4
05/09:30pm 20.4 19.6 16.0 76 2.6 S 15 20 8 11 1016.4 1016.4 1.4
05/09:00pm 20.5 19.7 16.1 76 2.6 S 15 24 8 13 1016.1 1016.1 1.4
05/08:30pm 20.9 19.6 16.9 78 2.4 S 19 32 10 17 1015.8 1015.8 1.4
05/08:00pm 21.1 19.1 17.5 80 2.2 SSE 24 35 13 19 1015.8 1015.8 1.4
05/07:30pm 20.8 19.4 18.0 84 1.7 S 22 32 12 17 1015.6 1015.6 1.4
05/07:00pm 20.6 18.4 18.7 89 1.2 SSE 28 39 15 21 1015.5 1015.5 1.4
05/06:30pm 20.7 16.9 19.0 90 1.1 SE 37 46 20 25 1015.5 1015.5 1.2
05/06:00pm 21.2 15.0 18.2 83 1.9 SE 48 57 26 31 1015.0 1015.0 0.0
05/05:30pm 23.4 18.3 18.7 75 3.0 SE 43 54 23 29 1014.5 1014.5 0.0
05/05:00pm 24.5 20.6 17.0 63 4.6 SSE 33 43 18 23 1013.8 1013.8 0.0
05/04:30pm 24.7 20.6 17.4 64 4.5 SSE 35 44 19 24 1013.7 1013.7 0.0
05/04:00pm 24.9 21.5 18.1 66 4.3 SE 33 41 18 22 1013.7 1013.7 0.0
05/03:30pm 25.2 21.3 17.9 64 4.6 SE 35 43 19 23 1013.7 1013.7 0.0
05/03:00pm 25.4 21.5 17.8 62 4.8 SE 35 41 19 22 1013.6 1013.6 0.0
05/02:30pm 25.7 22.3 18.1 63 4.8 SE 33 43 18 23 1013.8 1013.8 0.0
05/02:00pm 25.8 24.8 19.7 69 3.9 SSE 24 32 13 17 1014.0 1014.0 0.0
05/01:30pm 24.6 22.8 18.8 70 3.7 SE 26 32 14 17 1014.4 1014.4 0.0
05/01:00pm 23.6 20.9 18.5 73 3.2 SE 30 35 16 19 1014.7 1014.7 0.0
05/12:30pm 22.4 17.1 18.6 79 2.4 SE 44 54 24 29 1014.6 1014.6 0.0
05/12:21pm 24.4 22.2 18.8 71 3.6 SE 28 50 15 27 1014.5 1014.5 0.0
05/12:00pm 25.9 25.0 19.8 69 4.0 SE 24 30 13 16 1014.5 1014.5 0.0
05/11:30am 25.0 24.0 18.9 69 3.9 SSE 22 30 12 16 1014.6 1014.6 0.0
05/11:00am 25.1 24.8 19.5 71 3.6 SSE 20 26 11 14 1014.8 1014.8 0.0
05/10:30am 23.5 22.7 19.2 77 2.7 SSE 22 32 12 17 1015.1 1015.1 0.0
05/10:00am 22.7 19.2 18.7 78 2.5 SE 35 43 19 23 1015.2 1015.2 0.0
05/09:51am 22.4 18.2 18.8 80 2.3 SE 39 46 21 25 1015.2 1015.2 0.0
05/09:32am 23.8 20.9 18.0 70 3.6 SSE 30 57 16 31 1015.0 1015.0 0.0
05/09:30am 24.5 22.1 18.2 68 4.0 SSE 28 39 15 21 1014.9 1014.9 0.0
05/09:00am 24.7 22.5 17.9 66 4.3 SSE 26 43 14 23 1014.5 1014.5 7.6
05/08:30am 24.6 23.7 18.1 67 4.1 S 20 33 11 18 1014.0 1014.0 7.6
05/08:00am 23.6 21.8 16.9 66 4.1 S 22 37 12 20 1013.9 1013.9 7.6
05/07:30am 22.8 20.8 17.5 72 3.3 S 24 35 13 19 1014.0 1014.0 7.6
05/07:00am 22.6 20.8 16.9 70 3.5 S 22 33 12 18 1013.4 1013.4 7.6
05/06:30am 22.7 22.1 17.6 73 3.2 S 17 28 9 15 1013.1 1013.1 7.6
05/06:00am 21.6 20.8 17.2 76 2.7 SSW 17 32 9 17 1013.0 1013.0 7.6
05/05:30am 20.4 20.9 17.4 83 1.8 S 11 17 6 9 1012.7 1012.7 7.6
05/05:00am 19.9 20.1 16.7 82 1.9 S 11 17 6 9 1012.1 1012.1 7.6
05/04:30am 19.9 19.2 16.5 81 2.0 S 15 24 8 13 1011.6 1011.6 7.6
05/04:00am 19.7 20.1 16.3 81 2.0 SSW 9 13 5 7 1011.6 1011.6 7.6
05/03:30am 20.0 20.5 16.6 81 2.1 SSW 9 15 5 8 1011.8 1011.8 7.6
05/03:00am 20.1 19.6 16.9 82 1.9 S 15 20 8 11 1011.6 1011.6 7.6
05/02:30am 20.5 19.4 17.7 84 1.7 SE 20 28 11 15 1011.7 1011.7 7.6
05/02:00am 19.2 21.5 16.8 86 1.4 CALM 0 0 0 0 1011.5 1011.5 7.6
05/01:30am 19.7 20.9 16.9 84 1.7 WSW 6 9 3 5 1011.4 1011.4 7.6
05/01:00am 19.8 20.1 17.0 84 1.7 SW 11 17 6 9 1011.5 1011.5 7.6
05/12:30am 19.9 19.5 17.1 84 1.7 SW 15 22 8 12 1011.3 1011.3 7.6
05/12:00am 19.9 19.9 17.3 85 1.6 SW 13 20 7 11 1011.7 1011.7 7.6
 
Date/Time
EST
Temp
°C
App
Temp
°C
Dew
Point
°C
Rel
Hum
%
Delta-T
°C
Wind Press
QNH
hPa
Press
MSL
hPa
Rain since
9am
mm
Dir  Spd
km/h
Gust
km/h
Spd
kts
Gust
kts
04/11:30pm 20.1 20.1 17.3 84 1.7 W 13 19 7 10 1011.6 1011.6 7.6
04/11:00pm 20.0 19.9 17.0 83 1.8 WSW 13 19 7 10 1011.8 1011.8 7.6
04/10:30pm 19.9 20.4 17.5 86 1.5 WSW 11 15 6 8 1011.7 1011.7 7.6
04/10:00pm 20.2 21.2 17.8 86 1.5 WSW 9 13 5 7 1012.0 1012.0 7.6
04/09:30pm 20.3 19.9 17.1 82 1.9 SW 15 22 8 12 1012.4 1012.4 7.4
04/09:00pm 21.8 18.8 16.7 73 3.1 ENE 28 37 15 20 1012.1 1012.1 7.4
04/08:30pm 21.9 15.6 18.1 79 2.4 E 48 63 26 34 1011.5 1011.5 7.0
04/08:00pm 21.3 15.2 17.5 79 2.3 E 46 57 25 31 1012.9 1012.9 5.6
04/07:44pm 20.7 18.4 18.5 87 1.4 E 28 54 15 29 1013.2 1013.2 5.0
04/07:30pm 19.7 17.1 17.8 89 1.2 SE 28 37 15 20 1014.0 1014.0 4.4
04/07:00pm 20.4 14.0 16.8 80 2.2 SSE 46 67 25 36 1013.8 1013.8 0.0
04/06:53pm 21.8 16.4 17.0 74 2.9 SSE 41 67 22 36 1013.4 1013.4 0.0
04/06:47pm 23.8 21.4 17.3 67 4.0 S 26 59 14 32 1013.2 1013.2 0.0
04/06:41pm 25.0 26.2 19.1 69 3.8 SE 11 26 6 14 1012.5 1012.5 0.0
04/06:30pm 25.1 26.0 19.2 70 3.8 NNE 13 20 7 11 1010.5 1010.5 0.0
04/06:00pm 25.2 24.7 19.1 69 3.9 NE 20 28 11 15 1009.2 1009.2 0.0
04/05:30pm 25.5 24.8 18.7 66 4.3 NE 20 28 11 15 1008.7 1008.7 0.0
04/05:00pm 26.0 25.6 18.9 65 4.5 NNE 19 28 10 15 1008.4 1008.4 0.0
04/04:30pm 27.1 26.7 18.1 58 5.7 NNE 17 24 9 13 1008.4 1008.4 0.0
04/04:00pm 27.4 26.2 19.2 61 5.3 NE 24 30 13 16 1008.3 1008.3 0.0
04/03:30pm 28.0 27.4 19.8 61 5.3 NE 22 28 12 15 1008.5 1008.5 0.0
04/03:00pm 27.9 27.2 19.4 60 5.5 NE 22 28 12 15 1008.9 1008.9 0.0
04/02:30pm 27.9 27.4 19.9 61 5.2 NE 22 26 12 14 1009.3 1009.3 0.0
04/02:00pm 27.4 27.0 18.9 59 5.5 NE 19 22 10 12 1010.0 1010.0 0.0
04/01:30pm 27.6 27.3 19.1 59 5.5 NE 19 22 10 12 1010.5 1010.5 0.0
04/01:00pm 28.0 28.4 19.8 61 5.4 NE 17 19 9 10 1010.8 1010.8 0.0
04/12:30pm 27.8 28.2 19.8 61 5.2 NE 17 20 9 11 1011.2 1011.2 0.0
04/12:00pm 27.8 28.5 19.6 61 5.3 ENE 15 19 8 10 1011.7 1011.7 0.0
04/11:30am 27.5 28.0 19.3 61 5.3 ENE 15 17 8 9 1012.0 1012.0 0.0
04/11:00am 27.2 28.5 19.3 62 5.1 ENE 11 13 6 7 1012.5 1012.5 0.0
04/10:30am 26.9 28.6 19.3 63 4.9 ENE 9 11 5 6 1012.8 1012.8 0.0

Other formats

Comma delimited format used in spreadsheet applications
http://www.bom.gov.au/fwo/IDQ60801/IDQ60801.94580.axf

JavaScript Object Notation format (JSON) in row-major order
http://www.bom.gov.au/fwo/IDQ60801/IDQ60801.94580.json

Data quality

Most of these data are generated automatically and are frequently updated. Quality checks on data are not normally performed. It is possible for incorrect values to appear. Refer to information at About Latest Weather Observations and please check the disclaimer before using these data.